createdAt,value
2023-02-23T00:02:24.920Z,7.59
2023-02-23T00:04:53.823Z,7.75
2023-02-23T00:07:22.729Z,7.79
2023-02-23T00:09:52.987Z,7.72
2023-02-23T00:12:24.033Z,7.76
2023-02-23T00:14:54.258Z,7.77
2023-02-23T00:17:24.521Z,8.03
2023-02-23T00:19:53.587Z,8.02
2023-02-23T00:22:22.440Z,7.74
2023-02-23T00:24:51.283Z,7.85
2023-02-23T00:27:21.218Z,7.59
2023-02-23T00:29:51.073Z,7.85
2023-02-23T00:32:21.506Z,7.77
2023-02-23T00:34:53.263Z,7.44
2023-02-23T00:37:23.543Z,7.55
2023-02-23T00:39:52.984Z,7.33
2023-02-23T00:42:21.885Z,6.84
2023-02-23T00:44:51.144Z,7.17
2023-02-23T00:47:21.546Z,7.22
2023-02-23T00:49:51.608Z,7.14
2023-02-23T00:52:21.288Z,6.61
2023-02-23T00:54:51.576Z,6.67
2023-02-23T00:57:20.468Z,6.91
2023-02-23T00:59:51.548Z,7.13
2023-02-23T01:02:21.850Z,7.28
2023-02-23T01:04:51.754Z,7.35
2023-02-23T01:07:20.562Z,7.18
2023-02-23T01:09:49.707Z,7.32
2023-02-23T01:12:18.609Z,7.44
2023-02-23T01:14:47.767Z,7.47
2023-02-23T01:17:17.996Z,7.14
2023-02-23T01:19:48.303Z,7.26
2023-02-23T01:22:17.252Z,7.13
2023-02-23T01:24:47.508Z,7.11
2023-02-23T01:27:16.304Z,7.28
2023-02-23T01:29:45.169Z,7.30
2023-02-23T01:32:16.864Z,7.23
2023-02-23T01:34:45.940Z,7.29
2023-02-23T01:37:16.792Z,7.24
2023-02-23T01:39:46.406Z,7.24
2023-02-23T01:42:15.632Z,7.06
2023-02-23T01:45:26.202Z,7.19
2023-02-23T01:48:01.787Z,7.14
2023-02-23T01:50:46.508Z,7.06
2023-02-23T01:53:17.973Z,6.82
2023-02-23T01:55:49.857Z,6.65
2023-02-23T01:58:21.240Z,6.66
2023-02-23T02:00:54.458Z,6.75
2023-02-23T02:03:32.228Z,6.74
2023-02-23T02:06:03.297Z,6.60
2023-02-23T02:08:43.270Z,6.44
2023-02-23T02:11:26.310Z,6.45
2023-02-23T02:13:58.307Z,6.40
2023-02-23T02:16:45.174Z,6.87
2023-02-23T02:19:39.095Z,6.70
2023-02-23T02:22:27.505Z,6.82
2023-02-23T02:25:42.335Z,6.96
2023-02-23T02:28:43.325Z,6.82
2023-02-23T02:31:58.778Z,6.73
2023-02-23T02:35:05.848Z,6.92
2023-02-23T02:38:04.081Z,7.10
2023-02-23T02:40:53.355Z,6.88
2023-02-23T02:43:32.524Z,6.64
2023-02-23T02:46:11.469Z,6.58
2023-02-23T02:48:47.982Z,6.44
2023-02-23T02:51:26.244Z,6.66
2023-02-23T02:54:07.164Z,6.71
2023-02-23T02:56:40.681Z,6.89
2023-02-23T02:59:32.229Z,6.77
2023-02-23T03:02:19.102Z,6.76
2023-02-23T03:05:05.219Z,6.57
2023-02-23T03:07:59.468Z,6.57
2023-02-23T03:10:55.343Z,6.43
2023-02-23T03:13:46.407Z,6.32
2023-02-23T03:16:44.396Z,6.47
2023-02-23T03:19:39.121Z,6.42
2023-02-23T03:22:34.483Z,6.31
2023-02-23T03:25:26.864Z,6.25
2023-02-23T03:28:25.461Z,6.28
2023-02-23T03:31:26.044Z,6.23
2023-02-23T03:34:19.667Z,6.17
2023-02-23T03:37:11.288Z,6.22
2023-02-23T03:40:02.264Z,6.07
2023-02-23T03:42:54.561Z,5.96
2023-02-23T03:45:44.440Z,5.93
2023-02-23T03:48:34.625Z,5.55
2023-02-23T03:51:25.806Z,5.81
2023-02-23T03:54:20.645Z,5.19
2023-02-23T03:57:10.479Z,5.00
2023-02-23T04:00:02.042Z,5.10
2023-02-23T04:02:54.712Z,5.35
2023-02-23T04:05:42.583Z,5.54
2023-02-23T04:08:32.556Z,5.42
2023-02-23T04:11:28.019Z,5.66
2023-02-23T04:14:00.268Z,5.69
2023-02-23T04:16:29.420Z,5.75
2023-02-23T04:18:59.945Z,6.03
2023-02-23T04:21:29.575Z,6.05
2023-02-23T04:23:58.477Z,5.95
2023-02-23T04:26:27.375Z,5.49
2023-02-23T04:28:56.301Z,5.59
2023-02-23T04:31:26.190Z,5.66
2023-02-23T04:33:55.250Z,5.93
2023-02-23T04:36:26.880Z,5.99
2023-02-23T04:38:55.776Z,5.90
2023-02-23T04:41:24.602Z,5.83
2023-02-23T04:43:53.518Z,5.89
2023-02-23T04:46:22.492Z,5.46
2023-02-23T04:48:51.311Z,5.04
2023-02-23T04:51:20.332Z,5.27
2023-02-23T04:53:50.654Z,5.24
2023-02-23T04:56:19.486Z,5.35
2023-02-23T04:58:48.312Z,5.40
2023-02-23T05:01:17.603Z,5.49
2023-02-23T05:03:46.643Z,5.59
2023-02-23T05:06:15.662Z,5.49
2023-02-23T05:08:45.685Z,5.55
2023-02-23T05:11:16.131Z,5.35
2023-02-23T05:13:45.057Z,5.43
2023-02-23T05:16:14.004Z,6.81
2023-02-23T05:18:42.937Z,8.35
2023-02-23T05:21:13.187Z,9.22
2023-02-23T05:23:42.158Z,9.65
2023-02-23T05:26:13.469Z,9.57
2023-02-23T05:28:45.035Z,9.72
2023-02-23T05:31:14.376Z,9.99
2023-02-23T05:33:44.094Z,10.11
2023-02-23T05:36:16.417Z,9.60
2023-02-23T05:38:46.110Z,9.42
2023-02-23T05:41:16.791Z,9.55
2023-02-23T05:43:47.356Z,9.88
2023-02-23T05:46:18.079Z,10.19
2023-02-23T05:48:47.001Z,10.24
2023-02-23T05:51:18.062Z,10.32
2023-02-23T05:53:48.284Z,10.45
2023-02-23T05:56:20.779Z,10.57
2023-02-23T05:58:51.935Z,10.66
2023-02-23T06:01:21.948Z,10.87
2023-02-23T06:03:51.011Z,11.10
2023-02-23T06:06:20.626Z,11.29
2023-02-23T06:08:49.918Z,11.41
2023-02-23T06:11:19.266Z,11.62
2023-02-23T06:13:48.358Z,11.63
2023-02-23T06:16:18.672Z,11.84
2023-02-23T06:18:47.655Z,11.40
2023-02-23T06:21:16.665Z,11.29
2023-02-23T06:23:45.752Z,11.52
2023-02-23T06:26:14.975Z,12.05
2023-02-23T06:28:43.889Z,12.14
2023-02-23T06:31:13.273Z,12.38
2023-02-23T06:33:43.610Z,12.06
2023-02-23T06:36:12.517Z,11.69
2023-02-23T06:38:41.402Z,11.47
2023-02-23T06:41:10.842Z,11.47
2023-02-23T06:43:39.692Z,10.65
2023-02-23T06:46:08.737Z,10.75
2023-02-23T06:48:37.953Z,10.36
2023-02-23T06:51:08.388Z,10.20
2023-02-23T06:53:37.598Z,10.02
2023-02-23T06:56:07.071Z,9.74
2023-02-23T06:58:35.917Z,10.36
2023-02-23T07:01:04.826Z,10.22
2023-02-23T07:03:33.791Z,11.21
2023-02-23T07:06:04.778Z,11.99
2023-02-23T07:08:35.366Z,12.71
2023-02-23T07:11:08.940Z,12.90
2023-02-23T07:13:37.881Z,11.81
2023-02-23T07:16:07.980Z,12.26
2023-02-23T07:18:36.910Z,12.25
2023-02-23T07:21:06.105Z,12.02
2023-02-23T07:23:36.528Z,11.71
2023-02-23T07:26:05.579Z,11.81
2023-02-23T07:28:34.426Z,11.28
2023-02-23T07:31:03.923Z,10.84
2023-02-23T07:33:32.810Z,10.69
2023-02-23T07:36:01.824Z,11.41
2023-02-23T07:38:30.667Z,11.57
2023-02-23T07:41:00.953Z,11.63
2023-02-23T07:43:30.056Z,12.04
2023-02-23T07:46:00.586Z,12.63
2023-02-23T07:48:29.964Z,13.57
2023-02-23T07:50:58.942Z,14.65
2023-02-23T07:53:28.396Z,14.60
2023-02-23T07:55:57.869Z,14.13
2023-02-23T07:58:28.408Z,14.91
2023-02-23T08:00:57.837Z,14.64
2023-02-23T08:03:27.424Z,14.51
2023-02-23T08:05:56.314Z,14.83
2023-02-23T08:08:25.207Z,14.89
2023-02-23T08:11:01.983Z,14.96
2023-02-23T08:13:32.753Z,14.76
2023-02-23T08:16:01.715Z,14.10
2023-02-23T08:18:30.611Z,14.64
2023-02-23T08:21:00.401Z,13.49
2023-02-23T08:23:30.845Z,12.80
2023-02-23T08:26:00.689Z,13.51
2023-02-23T08:28:30.237Z,13.76
2023-02-23T08:31:00.923Z,14.73
2023-02-23T08:33:31.756Z,14.61
2023-02-23T08:36:03.010Z,14.82
2023-02-23T08:38:32.148Z,15.48
2023-02-23T08:41:02.041Z,15.97
2023-02-23T08:43:30.933Z,15.92
2023-02-23T08:46:01.417Z,15.93
2023-02-23T08:48:30.314Z,15.43
2023-02-23T08:50:59.909Z,16.79
2023-02-23T08:53:30.880Z,16.66
2023-02-23T08:56:00.803Z,16.60
2023-02-23T08:58:31.213Z,17.29
2023-02-23T09:01:03.347Z,18.22
2023-02-23T09:03:33.827Z,16.75
2023-02-23T09:06:09.691Z,18.11
2023-02-23T09:08:39.506Z,18.04
2023-02-23T09:11:08.398Z,17.07
2023-02-23T09:13:37.303Z,17.45
2023-02-23T09:16:09.653Z,18.06
2023-02-23T09:18:38.969Z,17.38
2023-02-23T09:21:10.980Z,17.50
2023-02-23T09:23:41.023Z,16.98
2023-02-23T09:26:10.197Z,17.79
2023-02-23T09:28:41.046Z,17.37
2023-02-23T09:31:13.210Z,17.73
2023-02-23T09:33:42.344Z,17.63
2023-02-23T09:36:16.346Z,16.82
2023-02-23T09:38:46.124Z,17.02
2023-02-23T09:41:51.639Z,17.10
2023-02-23T09:44:30.621Z,16.66
2023-02-23T09:47:15.210Z,16.64
2023-02-23T09:49:46.655Z,16.67
2023-02-23T09:52:20.099Z,16.79
2023-02-23T09:54:49.000Z,16.45
2023-02-23T09:57:24.840Z,16.91
2023-02-23T09:59:54.029Z,17.41
2023-02-23T10:02:34.677Z,16.95
2023-02-23T10:05:06.535Z,17.67
2023-02-23T10:07:47.345Z,17.98
2023-02-23T10:10:27.954Z,17.61
2023-02-23T10:13:09.653Z,17.33
2023-02-23T10:15:45.558Z,17.42
2023-02-23T10:18:44.966Z,17.22
2023-02-23T10:21:21.992Z,18.51
2023-02-23T10:23:55.376Z,18.21
2023-02-23T10:26:27.834Z,17.73
2023-02-23T10:28:59.992Z,19.06
2023-02-23T10:31:35.539Z,20.20
2023-02-23T10:34:14.838Z,20.25
2023-02-23T10:36:51.872Z,20.62
2023-02-23T10:39:20.767Z,19.99
2023-02-23T10:41:49.946Z,19.60
2023-02-23T10:44:21.990Z,20.65
2023-02-23T10:46:56.260Z,19.09
2023-02-23T10:49:31.660Z,20.08
2023-02-23T10:52:03.069Z,20.36
2023-02-23T10:54:44.601Z,19.59
2023-02-23T10:57:21.142Z,20.15
2023-02-23T11:00:03.792Z,20.76
2023-02-23T11:02:33.932Z,21.15
2023-02-23T11:05:05.589Z,20.51
2023-02-23T11:07:35.827Z,20.39
2023-02-23T11:10:27.615Z,20.56
2023-02-23T11:12:56.453Z,20.45
2023-02-23T11:15:48.610Z,19.59
2023-02-23T11:18:22.798Z,19.58
2023-02-23T11:20:53.431Z,21.13
2023-02-23T11:23:29.378Z,20.28
2023-02-23T11:26:02.477Z,20.59
2023-02-23T11:28:34.725Z,21.02
2023-02-23T11:31:14.997Z,22.30
2023-02-23T11:33:44.706Z,22.26
2023-02-23T11:36:26.750Z,21.06
2023-02-23T11:39:04.005Z,20.80
2023-02-23T11:41:35.322Z,20.60
2023-02-23T11:44:06.514Z,21.32
2023-02-23T11:46:39.791Z,19.93
2023-02-23T11:49:15.960Z,20.04
2023-02-23T11:51:50.261Z,21.62
2023-02-23T11:54:24.467Z,20.13
2023-02-23T11:56:55.319Z,20.60
2023-02-23T11:59:31.125Z,19.31
2023-02-23T12:02:07.237Z,20.18
2023-02-23T12:04:38.587Z,19.20
2023-02-23T12:07:38.970Z,19.02
2023-02-23T12:10:15.501Z,19.69
2023-02-23T12:12:50.938Z,19.07
2023-02-23T12:15:33.772Z,19.42
2023-02-23T12:18:09.513Z,19.75
2023-02-23T12:20:43.115Z,19.85
2023-02-23T12:23:16.365Z,19.97
2023-02-23T12:25:49.974Z,18.53
2023-02-23T12:28:26.944Z,18.77
2023-02-23T12:31:00.019Z,18.70
2023-02-23T12:33:35.378Z,18.81
2023-02-23T12:36:07.297Z,18.19
2023-02-23T12:38:48.843Z,19.04
2023-02-23T12:41:24.702Z,18.70
2023-02-23T12:44:00.850Z,18.71
2023-02-23T12:46:35.463Z,18.58
2023-02-23T12:49:13.965Z,18.20
2023-02-23T12:51:49.018Z,18.55
2023-02-23T12:54:19.930Z,19.23
2023-02-23T12:56:57.219Z,19.38
2023-02-23T12:59:51.096Z,19.49
2023-02-23T13:02:26.922Z,18.79
2023-02-23T13:05:24.345Z,18.71
2023-02-23T13:08:12.819Z,18.77
2023-02-23T13:10:52.236Z,17.81
2023-02-23T13:13:32.382Z,18.20
2023-02-23T13:16:09.924Z,18.24
2023-02-23T13:18:44.228Z,17.43
2023-02-23T13:21:20.985Z,17.80
2023-02-23T13:24:00.759Z,18.12
2023-02-23T13:26:40.236Z,17.63
2023-02-23T13:29:27.231Z,17.83
2023-02-23T13:31:56.693Z,17.70
2023-02-23T13:34:28.939Z,17.18
2023-02-23T13:37:00.186Z,16.77
2023-02-23T13:39:47.807Z,16.86
2023-02-23T13:42:28.186Z,17.02
2023-02-23T13:45:06.539Z,16.64
2023-02-23T13:47:45.513Z,16.94
2023-02-23T13:50:21.886Z,17.00
2023-02-23T13:52:51.052Z,17.00
2023-02-23T13:55:48.816Z,16.66
2023-02-23T13:58:28.138Z,16.68
2023-02-23T14:01:07.245Z,16.11
2023-02-23T14:03:42.635Z,15.95
2023-02-23T14:06:14.006Z,16.07
2023-02-23T14:08:45.135Z,16.22
2023-02-23T14:11:31.227Z,15.77
2023-02-23T14:14:03.524Z,15.77
2023-02-23T14:16:32.716Z,15.41
2023-02-23T14:19:13.056Z,15.83
2023-02-23T14:21:52.066Z,15.92
2023-02-23T14:24:23.832Z,15.88
2023-02-23T14:27:34.110Z,15.83
2023-02-23T14:30:16.843Z,15.45
2023-02-23T14:32:47.724Z,15.69
2023-02-23T14:35:42.742Z,15.48
2023-02-23T14:38:18.624Z,15.32
2023-02-23T14:40:51.706Z,15.71
2023-02-23T14:43:43.347Z,15.25
2023-02-23T14:46:22.794Z,15.25
2023-02-23T14:49:00.724Z,15.24
2023-02-23T14:51:44.887Z,15.68
2023-02-23T14:54:23.290Z,15.87
2023-02-23T14:56:54.979Z,15.17
2023-02-23T14:59:27.022Z,15.14
2023-02-23T15:02:02.100Z,15.46
2023-02-23T15:04:31.520Z,15.02
2023-02-23T15:07:03.229Z,14.77
2023-02-23T15:09:36.847Z,14.59
2023-02-23T15:12:14.980Z,14.42
2023-02-23T15:14:44.883Z,14.59
2023-02-23T15:17:22.040Z,14.40
2023-02-23T15:20:05.939Z,14.74
2023-02-23T15:22:42.815Z,14.47
2023-02-23T15:25:17.264Z,14.78
2023-02-23T15:27:47.397Z,14.39
2023-02-23T15:30:26.617Z,14.56
2023-02-23T15:33:04.764Z,14.53
2023-02-23T15:35:44.515Z,14.16
2023-02-23T15:38:42.331Z,14.18
2023-02-23T15:41:15.405Z,14.17
2023-02-23T15:43:44.676Z,13.77
2023-02-23T15:46:24.610Z,13.62
2023-02-23T15:48:56.758Z,13.32
2023-02-23T15:51:33.982Z,13.41
2023-02-23T15:54:07.900Z,13.26
2023-02-23T15:56:36.864Z,13.25
2023-02-23T15:59:13.142Z,13.10
2023-02-23T16:01:45.135Z,13.24
2023-02-23T16:04:20.116Z,13.01
2023-02-23T16:06:54.614Z,13.15
2023-02-23T16:09:28.602Z,13.03
2023-02-23T16:12:03.474Z,12.96
2023-02-23T16:14:37.669Z,12.91
2023-02-23T16:17:11.666Z,13.33
2023-02-23T16:19:45.016Z,13.08
2023-02-23T16:22:23.306Z,12.95
2023-02-23T16:25:00.448Z,12.77
2023-02-23T16:27:31.175Z,13.37
2023-02-23T16:30:06.673Z,13.36
2023-02-23T16:32:38.303Z,13.88
2023-02-23T16:35:17.953Z,14.60
2023-02-23T16:38:03.453Z,14.56
2023-02-23T16:40:32.945Z,14.06
2023-02-23T16:43:02.798Z,13.61
2023-02-23T16:45:31.921Z,13.08
2023-02-23T16:48:03.359Z,13.60
2023-02-23T16:50:40.513Z,13.96
2023-02-23T16:53:11.186Z,14.39
2023-02-23T16:55:43.620Z,14.03
2023-02-23T16:58:18.977Z,13.98
2023-02-23T17:00:48.108Z,14.28
2023-02-23T17:03:20.548Z,15.05
2023-02-23T17:05:51.150Z,14.66
2023-02-23T17:08:20.366Z,14.49
2023-02-23T17:10:52.249Z,14.44
2023-02-23T17:13:22.253Z,13.52
2023-02-23T17:15:53.730Z,13.80
2023-02-23T17:21:04.523Z,14.99
2023-02-23T17:23:42.520Z,14.62
2023-02-23T17:26:12.884Z,13.79
2023-02-23T17:28:42.006Z,14.16
2023-02-23T17:31:11.553Z,14.22
2023-02-23T17:33:42.380Z,13.76
2023-02-23T17:36:14.719Z,13.48
2023-02-23T17:38:44.976Z,12.63
2023-02-23T17:41:16.222Z,11.96
2023-02-23T17:43:45.473Z,12.02
2023-02-23T17:46:14.792Z,12.01
2023-02-23T17:48:47.372Z,12.48
2023-02-23T17:51:20.127Z,12.41
2023-02-23T17:53:49.252Z,12.55
2023-02-23T17:56:19.990Z,12.75
2023-02-23T17:58:48.958Z,12.60
2023-02-23T18:01:19.794Z,11.60
2023-02-23T18:03:51.054Z,12.16
2023-02-23T18:06:21.304Z,12.13
2023-02-23T18:08:50.286Z,13.16
2023-02-23T18:11:19.865Z,13.24
2023-02-23T18:13:51.219Z,13.40
2023-02-23T18:16:21.756Z,13.55
2023-02-23T18:18:50.775Z,12.78
2023-02-23T18:21:23.498Z,12.00
2023-02-23T18:23:52.925Z,12.77
2023-02-23T18:26:24.681Z,13.46
2023-02-23T18:28:55.337Z,13.29
2023-02-23T18:31:28.118Z,12.33
2023-02-23T18:33:58.060Z,12.00
2023-02-23T18:36:30.175Z,11.60
2023-02-23T18:39:00.924Z,12.28
2023-02-23T18:41:31.792Z,11.82
2023-02-23T18:44:02.015Z,11.65
2023-02-23T18:46:31.453Z,12.07
2023-02-23T18:49:00.643Z,12.38
2023-02-23T18:51:31.071Z,11.06
2023-02-23T18:54:00.819Z,11.32
2023-02-23T18:56:29.718Z,11.54
2023-02-23T18:59:00.336Z,11.64
2023-02-23T19:01:33.361Z,12.12
2023-02-23T19:04:03.710Z,11.49
2023-02-23T19:06:35.059Z,11.14
2023-02-23T19:09:07.882Z,10.47
2023-02-23T19:11:37.987Z,11.01
2023-02-23T19:14:09.518Z,10.98
2023-02-23T19:16:39.051Z,10.00
2023-02-23T19:19:09.506Z,9.93
2023-02-23T19:21:40.476Z,10.55
2023-02-23T19:24:09.762Z,11.07
2023-02-23T19:26:39.921Z,11.21
2023-02-23T19:29:09.097Z,10.96
2023-02-23T19:31:38.229Z,11.13
2023-02-23T19:34:08.928Z,11.08
2023-02-23T19:36:40.180Z,11.03
2023-02-23T19:39:15.560Z,10.03
2023-02-23T19:41:45.737Z,9.47
2023-02-23T19:44:14.609Z,9.87
2023-02-23T19:46:43.519Z,10.00
2023-02-23T19:49:13.073Z,10.09
2023-02-23T19:51:44.334Z,10.78
2023-02-23T19:54:13.262Z,11.04
2023-02-23T19:56:43.389Z,11.24
2023-02-23T19:59:12.308Z,10.80
2023-02-23T20:01:41.238Z,10.82
2023-02-23T20:04:10.062Z,11.00
2023-02-23T20:06:44.696Z,10.97
2023-02-23T20:09:15.645Z,10.58
2023-02-23T20:11:44.528Z,10.39
2023-02-23T20:14:13.364Z,10.18
2023-02-23T20:16:42.314Z,10.56
2023-02-23T20:19:11.726Z,10.44
2023-02-23T20:21:42.171Z,10.05
2023-02-23T20:24:12.819Z,10.24
2023-02-23T20:26:43.222Z,10.75
2023-02-23T20:29:17.930Z,10.69
2023-02-23T20:31:50.771Z,10.97
2023-02-23T20:34:24.024Z,10.80
2023-02-23T20:36:53.922Z,10.91
2023-02-23T20:39:24.365Z,10.88
2023-02-23T20:41:54.709Z,10.90
2023-02-23T20:44:25.448Z,10.68
2023-02-23T20:46:54.363Z,10.84
2023-02-23T20:49:24.431Z,10.89
2023-02-23T20:51:53.272Z,11.06
2023-02-23T20:54:22.316Z,11.11
2023-02-23T20:56:58.938Z,11.12
2023-02-23T20:59:31.072Z,10.75
2023-02-23T21:02:02.460Z,11.01
2023-02-23T21:04:32.189Z,11.29
2023-02-23T21:07:01.107Z,11.53
2023-02-23T21:09:30.799Z,11.55
2023-02-23T21:11:59.747Z,11.26
2023-02-23T21:14:29.933Z,11.40
2023-02-23T21:16:58.832Z,11.19
2023-02-23T21:19:27.715Z,11.28
2023-02-23T21:21:58.052Z,11.01
2023-02-23T21:24:27.605Z,11.22
2023-02-23T21:26:56.417Z,11.25
2023-02-23T21:29:25.246Z,11.09
2023-02-23T21:31:55.849Z,11.25
2023-02-23T21:34:24.755Z,11.78
2023-02-23T21:36:53.902Z,11.53
2023-02-23T21:39:22.820Z,11.39
2023-02-23T21:41:51.712Z,11.57
2023-02-23T21:44:20.626Z,11.28
2023-02-23T21:46:50.709Z,11.40
2023-02-23T21:49:21.468Z,11.46
2023-02-23T21:51:51.908Z,11.68
2023-02-23T21:54:21.552Z,11.73
2023-02-23T21:56:50.688Z,11.72
2023-02-23T21:59:20.440Z,11.45
2023-02-23T22:01:49.385Z,11.59
2023-02-23T22:04:19.195Z,11.46
2023-02-23T22:06:49.407Z,11.42
2023-02-23T22:09:18.643Z,11.52
2023-02-23T22:11:48.646Z,11.41
2023-02-23T22:14:18.061Z,11.25
2023-02-23T22:16:47.753Z,11.36
2023-02-23T22:19:17.147Z,11.22
2023-02-23T22:21:47.851Z,11.41
2023-02-23T22:24:18.856Z,11.40
2023-02-23T22:26:50.649Z,11.28
2023-02-23T22:29:19.627Z,11.26
2023-02-23T22:31:48.985Z,11.09
2023-02-23T22:34:19.374Z,11.22
2023-02-23T22:36:50.053Z,11.23
2023-02-23T22:39:20.355Z,11.26
2023-02-23T22:41:49.557Z,11.25
2023-02-23T22:44:21.201Z,10.94
2023-02-23T22:46:50.232Z,10.93
2023-02-23T22:49:20.070Z,11.12
2023-02-23T22:51:50.616Z,10.99
2023-02-23T22:54:23.799Z,11.32
2023-02-23T22:56:52.953Z,11.25
2023-02-23T22:59:21.838Z,11.22
2023-02-23T23:01:50.718Z,11.13
2023-02-23T23:04:22.121Z,10.89
2023-02-23T23:06:51.596Z,11.13
2023-02-23T23:09:22.168Z,11.22
2023-02-23T23:11:52.009Z,11.29
2023-02-23T23:14:21.309Z,11.37
2023-02-23T23:16:51.070Z,11.28
2023-02-23T23:19:24.364Z,11.12
2023-02-23T23:21:55.722Z,11.19
2023-02-23T23:24:26.542Z,11.26
2023-02-23T23:27:00.239Z,11.30
2023-02-23T23:29:30.747Z,11.27
2023-02-23T23:32:01.026Z,11.36
2023-02-23T23:34:33.599Z,11.45
2023-02-23T23:37:02.851Z,11.43
2023-02-23T23:39:33.246Z,11.36
2023-02-23T23:42:03.604Z,11.30
2023-02-23T23:44:33.906Z,11.35
2023-02-23T23:47:05.511Z,11.54
2023-02-23T23:49:37.941Z,11.43
2023-02-23T23:52:07.503Z,11.34
2023-02-23T23:54:41.302Z,11.34
2023-02-23T23:57:11.476Z,11.42
2023-02-23T23:59:46.224Z,11.36
